createdAt,value
2022-11-17T00:02:02.853Z,6.3
2022-11-17T00:07:15.332Z,6.27
2022-11-17T00:12:32.542Z,6.24
2022-11-17T00:17:39.800Z,6.18
2022-11-17T00:22:52.254Z,6.14
2022-11-17T00:28:04.552Z,6.15
2022-11-17T00:33:16.809Z,6.12
2022-11-17T00:38:29.214Z,6.09
2022-11-17T00:43:41.442Z,6.06
2022-11-17T00:48:53.661Z,5.97
2022-11-17T00:54:05.948Z,5.9
2022-11-17T00:59:18.615Z,5.88
2022-11-17T01:04:31.171Z,5.78
2022-11-17T01:09:43.567Z,5.78
2022-11-17T01:14:56.086Z,5.8
2022-11-17T01:20:08.633Z,5.81
2022-11-17T01:25:20.657Z,5.77
2022-11-17T01:30:32.748Z,5.64
2022-11-17T01:35:45.180Z,5.63
2022-11-17T01:40:57.337Z,5.63
2022-11-17T01:46:09.665Z,5.66
2022-11-17T01:51:21.897Z,5.63
2022-11-17T01:56:34.255Z,5.58
2022-11-17T02:01:46.607Z,5.57
2022-11-17T02:06:59.033Z,5.51
2022-11-17T02:12:11.152Z,5.5
2022-11-17T02:17:23.348Z,5.47
2022-11-17T02:22:35.693Z,5.44
2022-11-17T02:27:47.913Z,5.41
2022-11-17T02:33:00.278Z,5.41
2022-11-17T02:38:12.589Z,5.41
2022-11-17T02:43:24.876Z,5.42
2022-11-17T02:48:36.852Z,5.38
2022-11-17T02:53:49.435Z,5.36
2022-11-17T02:59:01.544Z,5.39
2022-11-17T03:04:13.862Z,5.39
2022-11-17T03:09:26.242Z,5.37
2022-11-17T03:14:38.373Z,5.36
2022-11-17T03:19:50.816Z,5.36
2022-11-17T03:25:03.279Z,5.39
2022-11-17T03:30:15.672Z,5.39
2022-11-17T03:35:28.204Z,5.38
2022-11-17T03:40:40.548Z,5.4
2022-11-17T03:45:52.750Z,5.39
2022-11-17T03:51:05.067Z,5.35
2022-11-17T03:56:17.715Z,5.33
2022-11-17T04:01:29.751Z,5.32
2022-11-17T04:06:41.940Z,5.28
2022-11-17T04:11:54.154Z,5.27
2022-11-17T04:17:06.282Z,5.27
2022-11-17T04:22:18.679Z,5.26
2022-11-17T04:27:32.175Z,5.26
2022-11-17T04:32:44.668Z,5.25
2022-11-17T04:37:56.899Z,5.25
2022-11-17T04:43:09.331Z,5.27
2022-11-17T04:48:21.426Z,5.25
2022-11-17T04:53:34.286Z,5.26
2022-11-17T04:58:46.272Z,5.27
2022-11-17T05:03:58.632Z,5.29
2022-11-17T05:09:10.905Z,5.27
2022-11-17T05:14:23.565Z,5.31
2022-11-17T05:19:35.775Z,5.35
2022-11-17T05:24:48.209Z,5.35
2022-11-17T05:30:00.965Z,5.31
2022-11-17T05:35:13.167Z,5.35
2022-11-17T05:40:25.455Z,5.34
2022-11-17T05:45:38.036Z,5.35
2022-11-17T05:50:50.351Z,5.38
2022-11-17T05:56:02.499Z,5.4
2022-11-17T06:01:14.931Z,5.41
2022-11-17T06:06:27.122Z,5.41
2022-11-17T06:11:39.539Z,5.4
2022-11-17T06:16:51.991Z,5.41
2022-11-17T06:22:11.980Z,5.43
2022-11-17T06:27:16.491Z,5.44
2022-11-17T06:32:28.742Z,5.44
2022-11-17T06:37:41.055Z,5.48
2022-11-17T06:42:53.545Z,5.5
2022-11-17T06:48:05.928Z,5.52
2022-11-17T06:53:18.126Z,5.53
2022-11-17T06:58:30.279Z,5.55
2022-11-17T07:03:43.091Z,5.59
2022-11-17T07:08:55.274Z,5.62
2022-11-17T07:14:07.485Z,5.64
2022-11-17T07:19:19.845Z,5.64
2022-11-17T07:24:32.020Z,5.66
2022-11-17T07:29:44.376Z,5.68
2022-11-17T07:34:56.722Z,5.71
2022-11-17T07:40:09.201Z,5.72
2022-11-17T07:45:21.637Z,5.73
2022-11-17T07:50:34.300Z,5.76
2022-11-17T07:55:46.496Z,5.79
2022-11-17T08:00:58.749Z,5.79
2022-11-17T08:06:11.175Z,5.8
2022-11-17T08:11:23.488Z,5.82
2022-11-17T08:16:35.681Z,5.86
2022-11-17T08:21:48.132Z,5.89
2022-11-17T08:27:00.327Z,5.86
2022-11-17T08:32:12.657Z,5.9
2022-11-17T08:37:25.113Z,5.92
2022-11-17T08:42:37.524Z,5.95
2022-11-17T08:47:49.973Z,6
2022-11-17T08:53:02.363Z,6.01
2022-11-17T08:58:14.708Z,5.9
2022-11-17T09:03:27.064Z,5.92
2022-11-17T09:08:47.514Z,5.94
2022-11-17T09:13:51.662Z,5.93
2022-11-17T09:19:03.914Z,5.89
2022-11-17T09:24:16.426Z,5.87
2022-11-17T09:29:28.648Z,5.91
2022-11-17T09:34:41.247Z,5.91
2022-11-17T09:39:53.789Z,5.9
2022-11-17T09:45:06.012Z,5.91
2022-11-17T09:50:18.368Z,5.94
2022-11-17T09:55:34.062Z,5.94
2022-11-17T10:00:42.774Z,5.96
2022-11-17T10:05:55.060Z,5.99
2022-11-17T10:11:07.332Z,5.97
2022-11-17T10:16:19.397Z,5.92
2022-11-17T10:21:31.838Z,5.93
2022-11-17T10:26:44.298Z,5.96
2022-11-17T10:31:56.617Z,6
2022-11-17T10:37:08.928Z,6.01
2022-11-17T10:42:21.094Z,6.01
2022-11-17T10:47:33.492Z,6.03
2022-11-17T10:52:45.493Z,6.05
2022-11-17T10:57:57.773Z,6.1
2022-11-17T11:03:10.163Z,6.15
2022-11-17T11:08:22.369Z,6.17
2022-11-17T11:13:34.729Z,6.17
2022-11-17T11:18:47.291Z,6.19
2022-11-17T11:24:00.250Z,7.02
2022-11-17T11:29:12.568Z,6.94
2022-11-17T11:34:24.715Z,6.69
2022-11-17T11:39:36.914Z,6.54
2022-11-17T11:44:49.209Z,6.47
2022-11-17T11:50:01.674Z,6.41
2022-11-17T11:55:14.567Z,6.42
2022-11-17T12:00:26.844Z,6.36
2022-11-17T12:05:39.177Z,6.36
2022-11-17T12:10:51.564Z,6.33
2022-11-17T12:16:03.813Z,6.31
2022-11-17T12:21:16.074Z,6.27
2022-11-17T12:26:28.359Z,6.31
2022-11-17T12:31:41.590Z,6.32
2022-11-17T12:36:54.281Z,6.33
2022-11-17T12:42:06.989Z,6.27
2022-11-17T12:47:19.433Z,6.32
2022-11-17T12:52:31.806Z,6.35
2022-11-17T12:57:44.248Z,6.32
2022-11-17T13:02:56.561Z,6.29
2022-11-17T13:08:08.878Z,6.28
2022-11-17T13:13:20.997Z,6.29
2022-11-17T13:18:33.450Z,6.29
2022-11-17T13:23:45.501Z,6.3
2022-11-17T13:28:57.873Z,6.28
2022-11-17T13:34:10.379Z,6.28
2022-11-17T13:39:26.970Z,6.27
2022-11-17T13:44:34.862Z,6.28
2022-11-17T13:49:47.479Z,6.27
2022-11-17T13:54:59.987Z,6.25
2022-11-17T14:00:12.319Z,6.18
2022-11-17T14:05:25.185Z,6.16
2022-11-17T14:10:37.717Z,6.21
2022-11-17T14:15:53.579Z,6.21
2022-11-17T14:21:03.022Z,6.22
2022-11-17T14:26:15.391Z,6.12
2022-11-17T14:31:27.704Z,6.1
2022-11-17T14:36:40.204Z,6.12
2022-11-17T14:41:52.651Z,6.1
2022-11-17T14:47:04.985Z,6.02
2022-11-17T14:52:17.270Z,6.02
2022-11-17T14:57:29.387Z,5.99
2022-11-17T15:02:41.643Z,5.98
2022-11-17T15:07:53.938Z,6.02
2022-11-17T15:13:06.149Z,6.02
2022-11-17T15:18:18.511Z,5.95
2022-11-17T15:23:30.797Z,5.9
2022-11-17T15:28:43.135Z,5.87
2022-11-17T15:33:55.552Z,5.79
2022-11-17T15:39:07.890Z,5.76
2022-11-17T15:44:20.253Z,5.7
2022-11-17T15:49:33.022Z,5.71
2022-11-17T15:54:45.352Z,5.68
2022-11-17T15:59:57.661Z,5.62
2022-11-17T16:05:09.794Z,5.59
2022-11-17T16:10:22.074Z,5.5
2022-11-17T16:15:34.372Z,5.45
2022-11-17T16:20:46.604Z,5.41
2022-11-17T16:25:58.973Z,5.38
2022-11-17T16:31:11.327Z,5.34
2022-11-17T16:36:23.763Z,5.31
2022-11-17T16:41:36.109Z,5.29
2022-11-17T16:46:48.509Z,5.28
2022-11-17T16:52:00.729Z,5.27
2022-11-17T16:57:13.071Z,5.24
2022-11-17T17:02:25.334Z,5.21
2022-11-17T17:07:37.662Z,5.2
2022-11-17T17:12:50.147Z,5.18
2022-11-17T17:18:02.508Z,5.16
2022-11-17T17:23:15.076Z,5.11
2022-11-17T17:28:27.393Z,5.1
2022-11-17T17:33:39.708Z,5.08
2022-11-17T17:38:55.718Z,5.07
2022-11-17T17:44:04.480Z,5.06
2022-11-17T17:49:16.758Z,5.05
2022-11-17T17:54:29.016Z,5.03
2022-11-17T18:04:54.142Z,5
2022-11-17T18:10:06.256Z,4.95
2022-11-17T18:15:18.578Z,4.91
2022-11-17T18:20:31.976Z,4.9
2022-11-17T18:25:44.157Z,4.92
2022-11-17T18:30:56.602Z,4.88
2022-11-17T18:36:08.918Z,4.87
2022-11-17T18:41:21.240Z,4.83
2022-11-17T18:46:33.680Z,4.82
2022-11-17T18:51:45.850Z,4.83
2022-11-17T18:56:58.204Z,4.79
2022-11-17T19:02:10.876Z,4.71
2022-11-17T19:07:23.234Z,4.73
2022-11-17T19:12:35.296Z,4.68
2022-11-17T19:17:47.829Z,4.65
2022-11-17T19:23:00.045Z,4.61
2022-11-17T19:28:12.769Z,4.55
2022-11-17T19:33:25.310Z,4.55
2022-11-17T19:38:37.509Z,4.54
2022-11-17T19:43:49.851Z,4.61
2022-11-17T19:49:02.166Z,4.65
2022-11-17T19:54:14.810Z,4.62
2022-11-17T19:59:27.140Z,4.62
2022-11-17T20:04:39.459Z,4.64
2022-11-17T20:09:52.389Z,4.71
2022-11-17T20:15:04.697Z,4.7
2022-11-17T20:20:17.167Z,4.61
2022-11-17T20:25:29.370Z,4.51
2022-11-17T20:30:41.664Z,4.35
2022-11-17T20:35:53.883Z,4.34
2022-11-17T20:41:06.141Z,4.27
2022-11-17T20:46:18.539Z,4.15
2022-11-17T20:51:30.754Z,4.06
2022-11-17T20:56:43.008Z,4.11
2022-11-17T21:01:55.464Z,4.12
2022-11-17T21:07:07.906Z,4.1
2022-11-17T21:12:20.194Z,4.02
2022-11-17T21:17:32.692Z,3.97
2022-11-17T21:22:45.116Z,3.98
2022-11-17T21:27:57.440Z,3.95
2022-11-17T21:33:09.743Z,4
2022-11-17T21:38:22.085Z,3.95
2022-11-17T21:43:34.458Z,3.93
2022-11-17T21:48:46.716Z,3.9
2022-11-17T21:53:59.124Z,3.9
2022-11-17T21:59:11.647Z,3.85
2022-11-17T22:04:24.098Z,3.86
2022-11-17T22:09:36.538Z,3.91
2022-11-17T22:14:48.529Z,3.92
2022-11-17T22:20:01.161Z,3.96
2022-11-17T22:25:37.932Z,3.98
2022-11-17T22:30:25.642Z,3.9
2022-11-17T22:35:38.632Z,3.96
2022-11-17T22:40:51.090Z,3.95
2022-11-17T22:46:03.491Z,3.91
2022-11-17T22:51:15.733Z,3.81
2022-11-17T22:56:28.184Z,3.77
2022-11-17T23:01:40.367Z,3.75
2022-11-17T23:06:53.221Z,3.77
2022-11-17T23:12:05.333Z,3.77
2022-11-17T23:17:17.755Z,3.77
2022-11-17T23:22:30.406Z,3.75
2022-11-17T23:27:42.946Z,3.67
2022-11-17T23:32:55.388Z,3.65
2022-11-17T23:38:08.162Z,3.68
2022-11-17T23:43:20.454Z,3.65
2022-11-17T23:48:32.601Z,3.59
2022-11-17T23:53:45.043Z,3.55
2022-11-17T23:58:57.377Z,3.55
